Time;durP1;ratioP1;P1;durP2;ratioP2;P2;SDS_P1;SDS_P2;PMS_P1;PMS_P2;Temp;Humidity;BMP_temperature;BMP_pressure;BME280_temperature;BME280_humidity;BME280_pressure;Samples;Min_cycle;Max_cycle;Signal;HPM_P1;HPM_P2
2021/01/27 00:02:12;;;;;;;7.43;4.27;;;;;;;;;;5092538;28;20043;-69
2021/01/27 00:04:37;;;;;;;6.10;2.90;;;;;;;;;;5091585;28;20398;-70
2021/01/27 00:07:03;;;;;;;6.07;3.00;;;;;;;;;;5076121;28;20069;-70
2021/01/27 00:09:29;;;;;;;9.67;6.40;;;;;;;;;;5089708;28;20035;-70
2021/01/27 00:11:54;;;;;;;9.23;5.20;;;;;;;;;;5094236;28;20425;-71
2021/01/27 00:14:19;;;;;;;7.73;4.17;;;;;;;;;;5095809;28;20012;-70
2021/01/27 00:16:44;;;;;;;7.73;4.20;;;;;;;;;;5091530;28;20161;-69
2021/01/27 00:19:10;;;;;;;11.50;5.60;;;;;;;;;;5094767;28;20024;-70
2021/01/27 00:21:35;;;;;;;4.80;2.77;;;;;;;;;;5094814;28;20024;-70
2021/01/27 00:24:00;;;;;;;4.13;2.23;;;;;;;;;;5095063;28;20466;-70
2021/01/27 00:26:25;;;;;;;4.87;2.93;;;;;;;;;;5092880;28;20394;-71
2021/01/27 00:28:50;;;;;;;2.67;1.57;;;;;;;;;;5095297;28;20442;-70
2021/01/27 00:31:16;;;;;;;7.13;4.80;;;;;;;;;;5095557;28;20024;-71
2021/01/27 00:33:41;;;;;;;9.97;6.47;;;;;;;;;;5095669;28;20450;-70
2021/01/27 00:36:06;;;;;;;6.47;3.23;;;;;;;;;;5091287;28;20484;-71
2021/01/27 00:38:31;;;;;;;10.37;5.40;;;;;;;;;;5095513;28;20032;-71
2021/01/27 00:40:57;;;;;;;10.57;5.63;;;;;;;;;;5095327;28;20012;-69
2021/01/27 00:43:23;;;;;;;8.47;5.77;;;;;;;;;;5088864;28;20017;-69
2021/01/27 00:45:49;;;;;;;9.03;5.80;;;;;;;;;;5092781;28;20102;-68
2021/01/27 00:48:15;;;;;;;8.00;4.70;;;;;;;;;;5094932;28;20099;-68
2021/01/27 00:50:40;;;;;;;8.10;4.87;;;;;;;;;;5095166;28;20020;-67
2021/01/27 00:53:05;;;;;;;7.20;4.37;;;;;;;;;;5094074;28;20012;-69
2021/01/27 00:55:31;;;;;;;6.77;4.47;;;;;;;;;;5092353;28;20058;-69
2021/01/27 00:57:57;;;;;;;6.47;3.07;;;;;;;;;;5095108;28;20016;-70
2021/01/27 01:00:24;;;;;;;8.17;4.50;;;;;;;;;;5093757;28;20019;-67
2021/01/27 01:02:49;;;;;;;7.33;5.27;;;;;;;;;;5083406;28;20016;-69
2021/01/27 01:05:17;;;;;;;9.23;4.83;;;;;;;;;;5092366;28;20766;-69
2021/01/27 01:07:43;;;;;;;8.17;5.37;;;;;;;;;;5094857;28;20016;-69
2021/01/27 01:10:09;;;;;;;8.67;4.93;;;;;;;;;;5095034;28;20023;-69
2021/01/27 01:12:34;;;;;;;6.83;2.83;;;;;;;;;;5094926;28;20032;-69
2021/01/27 01:14:59;;;;;;;3.23;1.77;;;;;;;;;;5084345;28;20081;-69
2021/01/27 01:17:24;;;;;;;5.60;2.87;;;;;;;;;;5094364;28;20028;-69
2021/01/27 01:19:50;;;;;;;8.50;4.87;;;;;;;;;;5094799;28;20052;-69
2021/01/27 01:22:15;;;;;;;8.03;5.20;;;;;;;;;;5093745;28;20065;-69
2021/01/27 01:24:40;;;;;;;7.83;5.17;;;;;;;;;;5094694;28;20071;-68
2021/01/27 01:27:05;;;;;;;8.17;4.40;;;;;;;;;;5084259;28;20054;-69
2021/01/27 01:29:31;;;;;;;7.17;4.63;;;;;;;;;;5093343;28;20017;-69
2021/01/27 01:31:56;;;;;;;7.30;4.87;;;;;;;;;;5093182;28;20028;-68
2021/01/27 01:34:22;;;;;;;7.73;4.63;;;;;;;;;;5094621;28;20012;-68
2021/01/27 01:36:47;;;;;;;7.73;4.97;;;;;;;;;;5090010;28;20382;-68
2021/01/27 01:39:12;;;;;;;8.77;5.00;;;;;;;;;;5094392;28;20012;-68
2021/01/27 01:41:37;;;;;;;8.27;4.50;;;;;;;;;;5092989;28;20028;-69
2021/01/27 01:44:03;;;;;;;8.87;5.27;;;;;;;;;;5094659;28;20040;-70
2021/01/27 01:46:29;;;;;;;8.53;5.00;;;;;;;;;;5090038;28;20017;-69
2021/01/27 01:49:04;;;;;;;7.53;3.67;;;;;;;;;;5094120;28;20016;-70
2021/01/27 01:51:29;;;;;;;;;;;;;;;;;;5084084;28;20026;-69
2021/01/27 01:53:56;;;;;;;6.20;3.13;;;;;;;;;;5093993;28;19908;-69
2021/01/27 01:56:26;;;;;;;7.33;4.80;;;;;;;;;;5090832;28;20103;-71
2021/01/27 01:58:52;;;;;;;4.77;2.50;;;;;;;;;;5092730;28;20026;-70
2021/01/27 02:01:19;;;;;;;5.63;3.90;;;;;;;;;;5094023;28;20019;-70
2021/01/27 02:03:44;;;;;;;5.20;3.30;;;;;;;;;;5094293;28;20077;-69
2021/01/27 02:06:10;;;;;;;8.10;4.57;;;;;;;;;;5086202;28;20028;-70
2021/01/27 02:08:36;;;;;;;6.43;3.07;;;;;;;;;;5080956;28;20031;-70
2021/01/27 02:11:02;;;;;;;9.23;3.90;;;;;;;;;;5093669;28;20039;-67
2021/01/27 02:13:27;;;;;;;5.53;3.47;;;;;;;;;;5092451;28;20471;-69
2021/01/27 02:15:59;;;;;;;5.53;3.40;;;;;;;;;;5090518;28;20020;-68
2021/01/27 02:18:36;;;;;;;6.87;4.33;;;;;;;;;;5088072;28;20106;-69
2021/01/27 02:21:20;;;;;;;7.13;4.93;;;;;;;;;;5088441;28;20024;-69
2021/01/27 02:23:48;;;;;;;1.70;1.10;;;;;;;;;;5091717;28;20249;-68
2021/01/27 02:26:26;;;;;;;5.07;1.40;;;;;;;;;;5083530;28;20032;-68
2021/01/27 02:28:52;;;;;;;5.30;3.67;;;;;;;;;;5093105;28;20044;-68
2021/01/27 02:31:33;;;;;;;8.23;4.00;;;;;;;;;;5093503;28;20470;-69
2021/01/27 02:34:17;;;;;;;3.47;2.23;;;;;;;;;;5092202;28;20027;-68
2021/01/27 02:36:45;;;;;;;4.53;2.57;;;;;;;;;;5088912;28;20414;-68
2021/01/27 02:39:14;;;;;;;8.37;4.30;;;;;;;;;;5093177;28;20063;-68
2021/01/27 02:41:45;;;;;;;6.17;3.10;;;;;;;;;;5092474;28;20069;-69
2021/01/27 02:44:14;;;;;;;4.73;1.60;;;;;;;;;;5091818;28;20470;-68
2021/01/27 02:46:46;;;;;;;6.33;3.60;;;;;;;;;;5089363;28;20026;-69
2021/01/27 02:49:14;;;;;;;6.90;4.00;;;;;;;;;;5093047;28;20028;-69
2021/01/27 02:51:43;;;;;;;6.70;4.07;;;;;;;;;;5093254;28;20475;-69
2021/01/27 02:54:10;;;;;;;6.57;4.00;;;;;;;;;;5092741;28;20067;-69
2021/01/27 02:56:39;;;;;;;7.23;4.57;;;;;;;;;;5090257;28;20118;-69
2021/01/27 02:59:06;;;;;;;8.20;3.47;;;;;;;;;;5093275;28;20016;-69
2021/01/27 03:01:45;;;;;;;5.10;3.30;;;;;;;;;;5092934;28;20039;-69
2021/01/27 03:04:17;;;;;;;5.90;3.67;;;;;;;;;;5092619;28;20063;-68
2021/01/27 03:06:43;;;;;;;4.77;2.60;;;;;;;;;;5090153;28;20102;-68
2021/01/27 03:09:12;;;;;;;3.07;2.00;;;;;;;;;;5092629;28;20028;-68
2021/01/27 03:11:37;;;;;;;3.80;2.63;;;;;;;;;;5093264;28;20382;-69
2021/01/27 03:14:06;;;;;;;4.03;2.40;;;;;;;;;;5082521;28;20020;-69
2021/01/27 03:16:41;;;;;;;4.60;2.23;;;;;;;;;;5068565;28;20055;-69
2021/01/27 03:19:12;;;;;;;6.80;4.07;;;;;;;;;;5080081;28;20027;-69
2021/01/27 03:21:39;;;;;;;4.73;3.40;;;;;;;;;;5091177;28;20020;-69
2021/01/27 03:24:08;;;;;;;5.47;4.30;;;;;;;;;;5090310;28;20099;-69
2021/01/27 03:26:36;;;;;;;6.33;4.00;;;;;;;;;;5079964;28;20059;-69
2021/01/27 03:29:05;;;;;;;8.37;4.70;;;;;;;;;;5092112;28;20075;-69
2021/01/27 03:31:30;;;;;;;5.03;3.73;;;;;;;;;;5092531;28;20035;-69
2021/01/27 03:34:02;;;;;;;7.60;4.17;;;;;;;;;;5090977;28;20039;-68
2021/01/27 03:36:34;;;;;;;6.30;3.60;;;;;;;;;;5088350;28;20024;-69
2021/01/27 03:39:00;;;;;;;6.70;4.23;;;;;;;;;;5091999;28;20012;-69
2021/01/27 03:41:30;;;;;;;5.57;3.43;;;;;;;;;;5092347;28;20373;-69
2021/01/27 03:44:06;;;;;;;6.60;4.37;;;;;;;;;;5090558;28;20028;-69
2021/01/27 03:46:38;;;;;;;6.20;3.83;;;;;;;;;;5089271;28;20093;-69
2021/01/27 03:49:09;;;;;;;7.70;4.20;;;;;;;;;;5091843;28;20020;-69
2021/01/27 03:51:40;;;;;;;6.17;4.17;;;;;;;;;;5091401;28;20050;-69
2021/01/27 03:54:07;;;;;;;7.07;4.63;;;;;;;;;;5092212;28;20032;-69
2021/01/27 03:56:41;;;;;;;8.43;4.30;;;;;;;;;;5089434;28;20463;-69
2021/01/27 03:59:13;;;;;;;5.47;2.97;;;;;;;;;;5091701;28;20040;-69
2021/01/27 04:01:51;;;;;;;5.40;3.57;;;;;;;;;;5092194;28;20025;-69
2021/01/27 04:04:17;;;;;;;9.90;3.90;;;;;;;;;;5091131;28;20027;-69
2021/01/27 04:06:42;;;;;;;5.83;3.57;;;;;;;;;;5087714;28;20020;-68
2021/01/27 04:09:08;;;;;;;7.50;4.33;;;;;;;;;;5091374;28;20023;-69
2021/01/27 04:11:33;;;;;;;9.17;4.20;;;;;;;;;;5092444;28;20095;-69
2021/01/27 04:13:58;;;;;;;6.77;4.27;;;;;;;;;;5083675;28;20682;-69
2021/01/27 04:16:24;;;;;;;2.93;1.43;;;;;;;;;;5088953;28;20445;-69
2021/01/27 04:18:50;;;;;;;11.27;4.10;;;;;;;;;;5091932;28;20085;-70
2021/01/27 04:21:15;;;;;;;7.80;4.93;;;;;;;;;;5088992;28;20016;-70
2021/01/27 04:23:40;;;;;;;8.30;4.83;;;;;;;;;;5090299;28;20420;-69
2021/01/27 04:26:05;;;;;;;7.50;4.70;;;;;;;;;;5089440;28;20470;-70
2021/01/27 04:28:30;;;;;;;8.77;4.43;;;;;;;;;;5091286;28;20048;-70
2021/01/27 04:30:56;;;;;;;9.43;5.83;;;;;;;;;;5091875;28;20028;-70
2021/01/27 04:33:22;;;;;;;8.37;4.67;;;;;;;;;;5092011;28;20035;-70
2021/01/27 04:35:47;;;;;;;5.63;3.17;;;;;;;;;;5088574;28;20446;-70
2021/01/27 04:38:12;;;;;;;6.97;3.83;;;;;;;;;;5091667;28;20506;-69
2021/01/27 04:40:42;;;;;;;9.90;6.70;;;;;;;;;;5092144;28;20016;-70
2021/01/27 04:43:28;;;;;;;4.23;2.53;;;;;;;;;;5090662;28;20020;-70
2021/01/27 04:46:05;;;;;;;14.70;9.33;;;;;;;;;;5088923;28;20032;-70
2021/01/27 04:48:41;;;;;;;15.97;9.80;;;;;;;;;;5090191;28;20039;-70
2021/01/27 04:51:10;;;;;;;15.03;8.97;;;;;;;;;;5091678;28;20024;-70
2021/01/27 04:53:47;;;;;;;17.60;11.13;;;;;;;;;;5090508;28;20031;-70
2021/01/27 04:56:27;;;;;;;17.60;9.80;;;;;;;;;;5091244;28;20031;-69
2021/01/27 04:59:10;;;;;;;15.53;9.93;;;;;;;;;;5094943;28;20031;-69
2021/01/27 05:01:47;;;;;;;17.27;11.37;;;;;;;;;;5095465;28;20024;-69
2021/01/27 05:04:31;;;;;;;16.43;10.03;;;;;;;;;;5095203;28;20528;-69
2021/01/27 05:07:00;;;;;;;17.60;10.53;;;;;;;;;;5091942;28;20042;-69
2021/01/27 05:09:30;;;;;;;13.83;8.30;;;;;;;;;;5093809;28;20395;-69
2021/01/27 05:11:57;;;;;;;21.47;11.93;;;;;;;;;;5095323;28;20074;-69
2021/01/27 05:14:23;;;;;;;18.47;12.40;;;;;;;;;;5092850;28;20028;-68
2021/01/27 05:16:50;;;;;;;14.67;8.43;;;;;;;;;;5090358;28;20035;-69
2021/01/27 05:19:15;;;;;;;17.63;10.27;;;;;;;;;;5093854;28;20434;-68
2021/01/27 05:21:45;;;;;;;16.63;10.13;;;;;;;;;;5093783;28;20047;-67
2021/01/27 05:24:10;;;;;;;15.87;10.17;;;;;;;;;;5093415;28;20024;-68
2021/01/27 05:26:35;;;;;;;13.13;7.50;;;;;;;;;;5090754;28;20062;-68
2021/01/27 05:29:05;;;;;;;16.00;9.23;;;;;;;;;;5092787;28;20054;-68
2021/01/27 05:31:49;;;;;;;15.40;9.40;;;;;;;;;;5094447;28;20077;-70
2021/01/27 05:34:25;;;;;;;16.47;8.03;;;;;;;;;;5093501;28;20081;-69
2021/01/27 05:36:50;;;;;;;15.10;9.77;;;;;;;;;;5090293;28;20032;-68
2021/01/27 05:39:15;;;;;;;14.53;9.60;;;;;;;;;;5092975;28;20142;-69
2021/01/27 05:41:42;;;;;;;11.83;7.30;;;;;;;;;;5089986;28;20016;-68
2021/01/27 05:44:08;;;;;;;15.80;9.50;;;;;;;;;;5090982;28;20021;-69
2021/01/27 05:46:35;;;;;;;14.10;8.70;;;;;;;;;;5091006;28;20019;-69
2021/01/27 05:49:01;;;;;;;14.60;8.10;;;;;;;;;;5094138;28;20028;-69
2021/01/27 05:51:28;;;;;;;15.83;9.63;;;;;;;;;;5090694;28;20028;-69
2021/01/27 05:53:53;;;;;;;15.70;10.00;;;;;;;;;;5094031;28;20020;-69
2021/01/27 05:56:23;;;;;;;17.13;10.57;;;;;;;;;;5091446;28;20008;-69
2021/01/27 05:59:06;;;;;;;18.23;9.73;;;;;;;;;;5092812;28;20375;-69
2021/01/27 06:01:46;;;;;;;16.80;9.90;;;;;;;;;;5093055;28;20482;-68
2021/01/27 06:04:11;;;;;;;17.67;10.33;;;;;;;;;;5089440;28;20402;-68
2021/01/27 06:06:39;;;;;;;18.67;10.70;;;;;;;;;;5090507;28;20016;-69
2021/01/27 06:09:05;;;;;;;11.03;6.37;;;;;;;;;;5092756;28;20024;-69
2021/01/27 06:11:31;;;;;;;7.23;4.40;;;;;;;;;;5094315;28;20038;-69
2021/01/27 06:14:10;;;;;;;19.30;12.60;;;;;;;;;;5092430;28;20024;-69
2021/01/27 06:16:45;;;;;;;21.27;12.80;;;;;;;;;;5090788;28;20016;-69
2021/01/27 06:19:10;;;;;;;18.13;10.45;;;;;;;;;;5094023;28;20417;-68
2021/01/27 06:21:54;;;;;;;16.17;9.30;;;;;;;;;;5090993;28;20020;-70
2021/01/27 06:24:37;;;;;;;19.03;10.47;;;;;;;;;;5090837;28;20066;-69
2021/01/27 06:27:21;;;;;;;13.57;8.50;;;;;;;;;;5086909;28;20032;-70
2021/01/27 06:30:05;;;;;;;21.43;11.73;;;;;;;;;;5092463;28;20024;-70
2021/01/27 06:32:30;;;;;;;17.03;10.57;;;;;;;;;;5093449;28;20035;-69
2021/01/27 06:34:58;;;;;;;20.13;12.30;;;;;;;;;;5091556;28;20028;-69
2021/01/27 06:37:35;;;;;;;19.40;11.70;;;;;;;;;;5092920;28;20019;-68
2021/01/27 06:40:01;;;;;;;7.60;4.70;;;;;;;;;;5093441;28;20023;-69
2021/01/27 06:42:37;;;;;;;23.07;15.57;;;;;;;;;;5092135;28;20497;-69
2021/01/27 06:45:18;;;;;;;7.57;4.83;;;;;;;;;;5090255;28;20320;-69
2021/01/27 06:48:06;;;;;;;21.30;12.97;;;;;;;;;;5093193;28;20024;-68
2021/01/27 06:50:47;;;;;;;19.40;12.00;;;;;;;;;;5092015;28;20024;-69
2021/01/27 06:53:28;;;;;;;23.33;13.97;;;;;;;;;;5092755;28;20020;-68
2021/01/27 06:56:02;;;;;;;22.60;13.70;;;;;;;;;;5088696;28;20023;-69
2021/01/27 06:59:00;;;;;;;21.13;13.43;;;;;;;;;;5092788;28;20012;-69
2021/01/27 07:01:41;;;;;;;17.90;10.80;;;;;;;;;;5091565;28;20016;-68
2021/01/27 07:04:14;;;;;;;23.33;14.77;;;;;;;;;;5092838;28;20099;-69
2021/01/27 07:07:05;;;;;;;18.53;11.60;;;;;;;;;;5082545;28;20016;-68
2021/01/27 07:09:33;;;;;;;17.20;11.67;;;;;;;;;;5051580;28;20036;-69
2021/01/27 07:11:58;;;;;;;18.60;11.60;;;;;;;;;;5092466;28;20048;-69
2021/01/27 07:14:27;;;;;;;26.57;15.20;;;;;;;;;;5091448;28;20125;-70
2021/01/27 07:16:57;;;;;;;23.43;17.00;;;;;;;;;;5089232;28;20043;-69
2021/01/27 07:19:35;;;;;;;26.70;21.50;;;;;;;;;;5091212;28;20501;-69
2021/01/27 07:22:19;;;;;;;22.13;15.00;;;;;;;;;;5091109;28;20020;-69
2021/01/27 07:24:44;;;;;;;23.90;15.70;;;;;;;;;;5085608;28;20027;-70
2021/01/27 07:27:11;;;;;;;25.87;16.50;;;;;;;;;;5090213;28;20008;-69
2021/01/27 07:30:09;;;;;;;25.43;19.03;;;;;;;;;;5092297;28;20379;-69
2021/01/27 07:33:03;;;;;;;23.13;16.97;;;;;;;;;;5066041;28;20493;-68
2021/01/27 07:35:35;;;;;;;23.60;15.50;;;;;;;;;;5079255;28;20084;-69
2021/01/27 07:38:02;;;;;;;25.43;17.93;;;;;;;;;;5082106;28;20432;-69
2021/01/27 07:40:32;;;;;;;24.33;16.40;;;;;;;;;;5090383;28;20356;-68
2021/01/27 07:43:14;;;;;;;24.03;15.13;;;;;;;;;;5090950;28;20107;-68
2021/01/27 07:45:42;;;;;;;22.90;15.67;;;;;;;;;;5089216;28;20028;-69
2021/01/27 07:48:15;;;;;;;23.03;14.90;;;;;;;;;;5090851;28;20032;-68
2021/01/27 07:50:41;;;;;;;21.47;15.60;;;;;;;;;;5092005;28;20032;-67
2021/01/27 07:53:12;;;;;;;23.13;16.00;;;;;;;;;;5091202;28;20024;-68
2021/01/27 07:55:43;;;;;;;22.23;17.00;;;;;;;;;;5089161;28;20095;-68
2021/01/27 07:58:13;;;;;;;24.13;16.30;;;;;;;;;;5087856;28;21042;-69
2021/01/27 08:00:59;;;;;;;17.83;10.80;;;;;;;;;;5092088;28;20012;-69
2021/01/27 08:03:30;;;;;;;21.73;15.67;;;;;;;;;;5089053;28;20085;-70
2021/01/27 08:06:01;;;;;;;21.40;14.40;;;;;;;;;;5083342;28;20067;-69
2021/01/27 08:08:26;;;;;;;24.80;15.80;;;;;;;;;;5091017;28;20024;-68
2021/01/27 08:10:52;;;;;;;20.80;13.43;;;;;;;;;;5092111;28;20096;-69
2021/01/27 08:13:26;;;;;;;22.43;14.43;;;;;;;;;;5092023;28;20020;-68
2021/01/27 08:16:21;;;;;;;21.70;15.17;;;;;;;;;;5083236;28;20021;-69
2021/01/27 08:19:05;;;;;;;19.87;15.40;;;;;;;;;;5080129;28;20040;-70
2021/01/27 08:21:30;;;;;;;17.57;12.17;;;;;;;;;;5083774;28;20032;-69
2021/01/27 08:23:56;;;;;;;18.60;14.97;;;;;;;;;;5085782;28;20406;-70
2021/01/27 08:26:40;;;;;;;18.27;13.13;;;;;;;;;;5084834;28;20379;-69
2021/01/27 08:29:08;;;;;;;17.70;12.23;;;;;;;;;;5089112;28;20047;-69
2021/01/27 08:31:33;;;;;;;17.20;12.83;;;;;;;;;;5094050;28;20065;-68
2021/01/27 08:33:58;;;;;;;17.90;11.63;;;;;;;;;;5090565;28;20418;-69
2021/01/27 08:36:44;;;;;;;14.83;9.50;;;;;;;;;;5087361;28;20025;-69
2021/01/27 08:39:12;;;;;;;17.27;11.07;;;;;;;;;;5089121;28;20039;-68
2021/01/27 08:42:03;;;;;;;17.90;11.23;;;;;;;;;;5095814;28;20020;-68
2021/01/27 08:44:40;;;;;;;17.43;11.53;;;;;;;;;;5089766;28;20024;-68
2021/01/27 08:47:08;;;;;;;16.93;10.77;;;;;;;;;;5091966;28;20472;-72
2021/01/27 08:49:53;;;;;;;15.47;11.60;;;;;;;;;;5088128;28;20008;-73
2021/01/27 08:52:19;;;;;;;17.35;11.27;;;;;;;;;;5070905;28;20035;-71
2021/01/27 08:54:49;;;;;;;16.80;12.30;;;;;;;;;;5094385;28;20020;-71
2021/01/27 08:57:24;;;;;;;13.57;10.00;;;;;;;;;;5090816;28;20017;-71
2021/01/27 08:59:50;;;;;;;14.97;12.07;;;;;;;;;;5093510;28;20016;-72
2021/01/27 09:02:35;;;;;;;15.40;13.30;;;;;;;;;;5094310;28;20383;-71
2021/01/27 09:05:02;;;;;;;12.15;9.57;;;;;;;;;;5086443;28;20362;-72
2021/01/27 09:07:27;;;;;;;12.93;11.43;;;;;;;;;;5092452;28;20031;-70
2021/01/27 09:09:52;;;;;;;8.30;6.70;;;;;;;;;;5093656;28;20020;-71
2021/01/27 09:12:25;;;;;;;13.17;11.43;;;;;;;;;;5094889;28;20108;-70
2021/01/27 09:14:53;;;;;;;13.67;9.73;;;;;;;;;;5088673;28;20055;-70
2021/01/27 09:17:19;;;;;;;12.37;9.40;;;;;;;;;;5092940;28;20027;-72
2021/01/27 09:19:44;;;;;;;9.63;8.63;;;;;;;;;;5092615;28;20020;-69
2021/01/27 09:22:09;;;;;;;9.43;7.57;;;;;;;;;;5092151;28;20085;-71
2021/01/27 09:24:48;;;;;;;9.97;7.53;;;;;;;;;;5093306;28;20024;-70
2021/01/27 09:27:14;;;;;;;12.03;7.53;;;;;;;;;;5087832;28;20490;-70
2021/01/27 09:29:39;;;;;;;9.93;7.37;;;;;;;;;;5093796;28;20031;-71
2021/01/27 09:32:15;;;;;;;10.53;7.90;;;;;;;;;;5093908;28;20091;-70
2021/01/27 09:34:41;;;;;;;12.60;9.57;;;;;;;;;;5093343;28;20470;-70
2021/01/27 09:37:15;;;;;;;12.00;8.60;;;;;;;;;;5092051;28;20013;-71
2021/01/27 09:39:44;;;;;;;9.37;7.77;;;;;;;;;;5091759;28;20020;-69
2021/01/27 09:42:16;;;;;;;8.37;7.53;;;;;;;;;;5092740;28;20036;-72
2021/01/27 09:44:42;;;;;;;10.50;7.57;;;;;;;;;;5091312;28;20070;-71
2021/01/27 09:47:09;;;;;;;8.10;7.30;;;;;;;;;;5090027;28;20478;-71
2021/01/27 09:49:39;;;;;;;7.10;6.40;;;;;;;;;;5092056;28;20114;-70
2021/01/27 09:52:06;;;;;;;9.70;7.80;;;;;;;;;;5072482;28;20028;-70
2021/01/27 09:54:31;;;;;;;12.20;8.63;;;;;;;;;;5071825;28;20052;-69
2021/01/27 09:56:59;;;;;;;7.70;6.93;;;;;;;;;;5084776;28;20048;-72
2021/01/27 09:59:25;;;;;;;8.00;6.23;;;;;;;;;;5092085;28;20024;-70
2021/01/27 10:01:50;;;;;;;6.70;6.03;;;;;;;;;;5093025;28;20028;-70
2021/01/27 10:04:17;;;;;;;7.60;6.07;;;;;;;;;;5092022;28;20102;-70
2021/01/27 10:06:44;;;;;;;8.87;6.23;;;;;;;;;;5090489;28;20379;-70
2021/01/27 10:09:25;;;;;;;6.93;6.23;;;;;;;;;;5084348;28;20036;-70
2021/01/27 10:11:57;;;;;;;9.07;6.30;;;;;;;;;;5088173;28;20072;-71
2021/01/27 10:14:24;;;;;;;7.67;4.70;;;;;;;;;;5091266;28;20024;-70
2021/01/27 10:16:54;;;;;;;6.33;4.20;;;;;;;;;;5088523;28;20111;-71
2021/01/27 10:19:21;;;;;;;5.10;3.87;;;;;;;;;;5091495;28;20063;-68
2021/01/27 10:21:47;;;;;;;5.27;3.87;;;;;;;;;;5090098;28;20059;-70
2021/01/27 10:24:31;;;;;;;2.83;2.17;;;;;;;;;;5092976;28;20052;-70
2021/01/27 10:27:06;;;;;;;3.85;3.42;;;;;;;;;;5081169;28;20394;-69
2021/01/27 10:29:36;;;;;;;4.80;3.42;;;;;;;;;;5092346;28;20036;-70
2021/01/27 10:32:16;;;;;;;3.35;2.20;;;;;;;;;;5091803;28;20024;-69
2021/01/27 10:34:42;;;;;;;5.72;3.72;;;;;;;;;;5092435;28;20050;-70
2021/01/27 10:37:28;;;;;;;4.25;3.05;;;;;;;;;;5089895;28;20055;-71
2021/01/27 10:40:08;;;;;;;5.68;4.25;;;;;;;;;;5091640;28;20032;-70
2021/01/27 10:42:35;;;;;;;4.10;2.50;;;;;;;;;;5092483;28;20047;-69
2021/01/27 10:45:19;;;;;;;2.88;2.67;;;;;;;;;;5090661;28;20484;-70
2021/01/27 10:47:44;;;;;;;4.97;3.22;;;;;;;;;;5089837;28;20416;-69
2021/01/27 10:50:10;;;;;;;3.45;3.15;;;;;;;;;;5092018;28;20112;-69
2021/01/27 10:52:36;;;;;;;2.65;2.45;;;;;;;;;;5081931;28;20027;-70
2021/01/27 10:55:02;;;;;;;3.33;3.03;;;;;;;;;;5090426;28;20024;-70
2021/01/27 10:57:27;;;;;;;4.38;3.70;;;;;;;;;;5092495;28;20027;-70
2021/01/27 10:59:53;;;;;;;4.55;3.58;;;;;;;;;;5091574;28;20028;-70
2021/01/27 11:02:19;;;;;;;2.50;2.30;;;;;;;;;;5090637;28;20020;-70
2021/01/27 11:04:44;;;;;;;2.72;2.50;;;;;;;;;;5090129;28;20111;-69
2021/01/27 11:07:09;;;;;;;3.08;2.75;;;;;;;;;;5088907;28;20098;-70
2021/01/27 11:09:34;;;;;;;4.60;3.83;;;;;;;;;;5084444;28;20482;-70
2021/01/27 11:11:59;;;;;;;3.58;2.70;;;;;;;;;;5079280;28;20020;-69
2021/01/27 11:14:25;;;;;;;1.50;1.10;;;;;;;;;;5089061;28;20288;-70
2021/01/27 11:16:50;;;;;;;3.80;3.25;;;;;;;;;;5081704;28;20062;-69
2021/01/27 11:19:15;;;;;;;3.05;2.80;;;;;;;;;;5083941;28;20107;-68
2021/01/27 11:21:41;;;;;;;3.78;3.40;;;;;;;;;;5090938;28;20424;-68
2021/01/27 11:24:06;;;;;;;2.55;2.35;;;;;;;;;;5090361;28;20065;-69
2021/01/27 11:26:32;;;;;;;3.67;3.38;;;;;;;;;;5087391;28;20051;-68
2021/01/27 11:28:57;;;;;;;3.53;3.22;;;;;;;;;;5090192;28;20126;-68
2021/01/27 11:31:24;;;;;;;3.10;2.25;;;;;;;;;;5092366;28;20024;-69
2021/01/27 11:33:49;;;;;;;3.17;2.75;;;;;;;;;;5091882;28;20023;-69
2021/01/27 11:36:17;;;;;;;3.30;3.00;;;;;;;;;;5089020;28;20016;-69
2021/01/27 11:38:43;;;;;;;2.28;2.08;;;;;;;;;;5089184;28;20031;-69
2021/01/27 11:41:09;;;;;;;4.15;3.83;;;;;;;;;;5092498;28;20030;-70
2021/01/27 11:43:37;;;;;;;3.42;3.15;;;;;;;;;;5090320;28;20012;-70
2021/01/27 11:46:11;;;;;;;3.28;2.25;;;;;;;;;;5086877;28;20020;-69
2021/01/27 11:48:37;;;;;;;4.35;3.30;;;;;;;;;;5090527;28;20031;-69
2021/01/27 11:51:03;;;;;;;5.95;3.65;;;;;;;;;;5091780;28;20053;-69
2021/01/27 11:53:28;;;;;;;3.35;3.05;;;;;;;;;;5091760;28;20073;-69
2021/01/27 11:55:53;;;;;;;3.83;3.38;;;;;;;;;;5086718;28;20031;-70
2021/01/27 11:58:18;;;;;;;3.95;3.30;;;;;;;;;;5086375;28;20028;-69
2021/01/27 12:00:44;;;;;;;4.72;4.15;;;;;;;;;;5090528;28;20016;-69
2021/01/27 12:03:09;;;;;;;5.68;4.72;;;;;;;;;;5092229;28;20031;-69
2021/01/27 12:05:35;;;;;;;4.28;3.90;;;;;;;;;;5081884;28;20070;-68
2021/01/27 12:08:00;;;;;;;4.95;4.40;;;;;;;;;;5084935;28;20029;-69
2021/01/27 12:10:25;;;;;;;4.50;3.88;;;;;;;;;;5095397;28;20489;-70
2021/01/27 12:12:51;;;;;;;7.38;4.95;;;;;;;;;;5095720;28;20077;-69
2021/01/27 12:15:16;;;;;;;5.20;4.80;;;;;;;;;;5081803;28;20129;-70
2021/01/27 12:17:42;;;;;;;4.93;4.50;;;;;;;;;;5093710;28;20400;-68
2021/01/27 12:20:08;;;;;;;3.45;2.80;;;;;;;;;;5094570;28;20470;-68
2021/01/27 12:22:33;;;;;;;5.88;3.92;;;;;;;;;;5094471;28;20112;-68
2021/01/27 12:24:59;;;;;;;4.47;4.05;;;;;;;;;;5093768;28;20247;-69
2021/01/27 12:27:24;;;;;;;4.45;3.95;;;;;;;;;;5094662;28;20059;-68
2021/01/27 12:29:49;;;;;;;3.90;3.50;;;;;;;;;;5094024;28;20115;-61
2021/01/27 12:32:14;;;;;;;5.45;4.75;;;;;;;;;;5095762;28;20024;-58
2021/01/27 12:34:39;;;;;;;6.03;4.68;;;;;;;;;;5094697;28;20073;-59
2021/01/27 12:37:05;;;;;;;5.43;3.97;;;;;;;;;;5089071;28;20093;-59
2021/01/27 12:39:30;;;;;;;4.32;2.75;;;;;;;;;;5090568;28;20024;-60
2021/01/27 12:41:55;;;;;;;4.85;3.28;;;;;;;;;;5095414;28;20434;-59
2021/01/27 12:44:20;;;;;;;3.88;1.90;;;;;;;;;;5094708;28;20012;-60
2021/01/27 12:46:46;;;;;;;5.68;3.88;;;;;;;;;;5091728;28;20113;-59
2021/01/27 12:49:12;;;;;;;4.28;3.83;;;;;;;;;;5095028;28;20027;-58
2021/01/27 12:51:37;;;;;;;5.88;4.22;;;;;;;;;;5095689;28;20036;-59
2021/01/27 12:54:02;;;;;;;4.43;4.03;;;;;;;;;;5095079;28;20383;-57
2021/01/27 12:56:27;;;;;;;4.82;3.83;;;;;;;;;;5091483;28;20031;-59
2021/01/27 12:58:53;;;;;;;4.10;3.58;;;;;;;;;;5092286;28;20030;-60
2021/01/27 13:01:20;;;;;;;5.63;3.78;;;;;;;;;;5089362;28;20181;-58
2021/01/27 13:03:45;;;;;;;4.88;3.80;;;;;;;;;;5094996;28;20382;-59
2021/01/27 13:06:12;;;;;;;4.50;3.63;;;;;;;;;;5089603;28;20028;-59
2021/01/27 13:08:37;;;;;;;6.13;3.92;;;;;;;;;;5094080;28;20028;-59
2021/01/27 13:11:02;;;;;;;6.40;4.55;;;;;;;;;;5075472;28;20031;-61
2021/01/27 13:13:27;;;;;;;4.40;3.53;;;;;;;;;;5088439;28;20421;-61
2021/01/27 13:15:53;;;;;;;5.22;3.67;;;;;;;;;;5090505;28;20372;-61
2021/01/27 13:18:18;;;;;;;5.35;3.65;;;;;;;;;;5090512;28;20042;-60
2021/01/27 13:20:43;;;;;;;5.65;4.05;;;;;;;;;;5093636;28;20532;-60
2021/01/27 13:23:08;;;;;;;5.15;4.05;;;;;;;;;;5087184;28;20020;-60
2021/01/27 13:25:34;;;;;;;5.70;4.60;;;;;;;;;;5090562;28;20510;-61
2021/01/27 13:28:00;;;;;;;6.32;4.47;;;;;;;;;;5093053;28;20056;-59
2021/01/27 13:30:26;;;;;;;5.55;4.47;;;;;;;;;;5083703;28;20024;-60
2021/01/27 13:32:52;;;;;;;6.18;4.22;;;;;;;;;;5094333;28;20027;-59
2021/01/27 13:35:19;;;;;;;6.43;4.90;;;;;;;;;;5091763;28;20031;-59
2021/01/27 13:37:44;;;;;;;5.37;4.63;;;;;;;;;;5092305;28;20070;-58
2021/01/27 13:40:10;;;;;;;6.60;4.80;;;;;;;;;;5093151;28;20020;-57
2021/01/27 13:42:36;;;;;;;5.37;4.50;;;;;;;;;;5091203;28;20048;-59
2021/01/27 13:45:01;;;;;;;5.93;5.33;;;;;;;;;;5091594;28;20467;-57
2021/01/27 13:47:26;;;;;;;5.60;3.90;;;;;;;;;;5093568;28;20028;-57
2021/01/27 13:49:51;;;;;;;6.57;4.80;;;;;;;;;;5092829;28;20023;-55
2021/01/27 13:52:17;;;;;;;5.87;4.47;;;;;;;;;;5093603;28;20038;-59
2021/01/27 13:54:42;;;;;;;5.47;4.17;;;;;;;;;;5093167;28;20027;-59
2021/01/27 13:57:08;;;;;;;5.47;4.47;;;;;;;;;;5087689;28;20055;-57
2021/01/27 13:59:33;;;;;;;5.00;4.30;;;;;;;;;;5082204;28;20078;-58
2021/01/27 14:01:58;;;;;;;8.27;5.50;;;;;;;;;;5086528;28;20863;-58
2021/01/27 14:04:23;;;;;;;7.13;5.20;;;;;;;;;;5091038;28;20023;-60
2021/01/27 14:06:48;;;;;;;8.03;5.43;;;;;;;;;;5083767;28;20051;-59
2021/01/27 14:09:14;;;;;;;5.80;4.80;;;;;;;;;;5089567;28;20032;-60
2021/01/27 14:11:39;;;;;;;6.63;5.00;;;;;;;;;;5090625;28;20024;-57
2021/01/27 14:14:04;;;;;;;7.10;5.00;;;;;;;;;;5080829;28;20103;-60
2021/01/27 14:16:31;;;;;;;7.20;4.70;;;;;;;;;;5078734;28;20020;-59
2021/01/27 14:18:58;;;;;;;7.27;5.03;;;;;;;;;;5090093;28;20028;-59
2021/01/27 14:21:23;;;;;;;7.10;4.40;;;;;;;;;;5087974;28;20015;-56
2021/01/27 14:23:48;;;;;;;6.43;4.53;;;;;;;;;;5084722;28;20104;-59
2021/01/27 14:26:16;;;;;;;6.07;5.13;;;;;;;;;;5084740;28;20024;-57
2021/01/27 14:28:41;;;;;;;6.70;4.67;;;;;;;;;;5078326;28;20092;-59
2021/01/27 14:31:06;;;;;;;4.30;3.40;;;;;;;;;;5085765;28;20020;-59
2021/01/27 14:33:31;;;;;;;7.27;3.80;;;;;;;;;;5086813;28;20489;-58
2021/01/27 14:35:57;;;;;;;4.37;3.10;;;;;;;;;;5086890;28;20059;-56
2021/01/27 14:38:22;;;;;;;5.53;3.80;;;;;;;;;;5084532;28;20016;-57
2021/01/27 14:40:48;;;;;;;8.43;4.47;;;;;;;;;;5076785;28;20372;-57
2021/01/27 14:43:13;;;;;;;5.00;3.73;;;;;;;;;;5077843;28;20021;-58
2021/01/27 14:45:39;;;;;;;6.00;3.27;;;;;;;;;;5081545;28;20036;-59
2021/01/27 14:48:06;;;;;;;5.80;4.00;;;;;;;;;;5087849;28;20074;-59